Time;durP1;ratioP1;P1;durP2;ratioP2;P2;SDS_P1;SDS_P2;PMS_P1;PMS_P2;Temp;Humidity;BMP_temperature;BMP_pressure;BME280_temperature;BME280_humidity;BME280_pressure;Samples;Min_cycle;Max_cycle;Signal;HPM_P1;HPM_P2
2021/09/23 00:00:39;;;;;;;3.33;2.55;;;;;;;21.92;57.88;100876.61;1795968;79;21150;-56
2021/09/23 00:03:13;;;;;;;4.55;2.30;;;;;;;21.95;57.90;100875.41;1772723;80;21237;-56
2021/09/23 00:05:40;;;;;;;4.10;2.45;;;;;;;22.00;57.84;100878.59;1787459;80;21055;-56
2021/09/23 00:08:06;;;;;;;4.75;2.60;;;;;;;22.04;57.76;100876.80;1784869;79;21091;-56
2021/09/23 00:10:34;;;;;;;3.98;2.47;;;;;;;22.07;57.67;100881.69;1782121;79;21110;-55
2021/09/23 00:13:01;;;;;;;3.95;2.85;;;;;;;22.12;57.56;100878.76;1789680;79;21007;-56
2021/09/23 00:15:28;;;;;;;4.75;2.77;;;;;;;22.16;57.45;100879.73;1788263;79;21289;-53
2021/09/23 00:17:58;;;;;;;4.05;2.58;;;;;;;22.20;57.32;100873.78;1805549;79;21831;-55
2021/09/23 00:20:28;;;;;;;4.67;2.67;;;;;;;22.22;57.21;100875.10;1767007;80;21219;-56
2021/09/23 00:22:54;;;;;;;2.90;2.17;;;;;;;22.26;57.11;100875.26;1794922;79;21062;-55
2021/09/23 00:25:20;;;;;;;3.30;2.10;;;;;;;;;;1795820;78;21491;-55
2021/09/23 00:27:46;;;;;;;2.92;2.10;;;;;;;22.30;56.87;100880.39;1786965;79;21305;-56
2021/09/23 00:30:13;;;;;;;3.10;2.00;;;;;;;22.31;56.75;100885.62;1793499;78;21468;-55
2021/09/23 00:32:40;;;;;;;2.75;1.60;;;;;;;22.33;56.66;100881.93;1796657;79;21088;-55
2021/09/23 00:35:07;;;;;;;2.55;1.77;;;;;;;22.36;56.54;100873.55;1788681;79;21102;-55
2021/09/23 00:37:33;;;;;;;2.72;1.42;;;;;;;22.38;56.44;100871.81;1798331;79;21100;-55
2021/09/23 00:40:00;;;;;;;2.75;1.65;;;;;;;22.39;56.37;100870.68;1799819;79;21536;-56
2021/09/23 00:42:26;;;;;;;2.37;1.72;;;;;;;22.41;56.26;100870.58;1797791;78;20977;-56
2021/09/23 00:44:58;;;;;;;1.55;1.10;;;;;;;22.42;56.17;100866.67;1795660;79;20995;-55
2021/09/23 00:47:24;;;;;;;2.10;1.27;;;;;;;22.45;56.09;100869.38;1790988;78;21111;-56
2021/09/23 00:49:50;;;;;;;2.27;1.40;;;;;;;22.46;56.01;100865.44;1781470;79;20901;-55
2021/09/23 00:52:19;;;;;;;2.27;1.52;;;;;;;22.46;55.92;100863.48;1782566;79;21973;-55
2021/09/23 00:54:46;;;;;;;3.90;1.30;;;;;;;22.48;55.88;100858.44;1778534;79;21100;-56
2021/09/23 00:57:17;;;;;;;1.70;1.20;;;;;;;22.49;55.81;100862.82;1787002;79;22424;-56
2021/09/23 00:59:42;;;;;;;1.75;1.20;;;;;;;22.50;55.77;100857.52;1784671;79;21102;-55
2021/09/23 01:02:08;;;;;;;2.87;1.40;;;;;;;22.52;55.71;100869.12;1784411;79;21445;-55
2021/09/23 01:04:34;;;;;;;1.85;1.47;;;;;;;22.52;55.67;100864.95;1786687;79;21119;-57
2021/09/23 01:07:01;;;;;;;2.12;1.30;;;;;;;22.54;55.63;100868.20;1782301;79;21550;-55
2021/09/23 01:09:27;;;;;;;1.80;1.15;;;;;;;22.56;55.60;100881.75;1779598;79;21044;-55
2021/09/23 01:11:53;;;;;;;2.15;1.17;;;;;;;22.56;55.54;100884.52;1782999;79;21023;-56
2021/09/23 01:14:19;;;;;;;2.10;1.10;;;;;;;22.56;55.48;100888.11;1782234;79;21623;-56
2021/09/23 01:16:45;;;;;;;2.12;1.60;;;;;;;22.56;55.46;100889.50;1775225;79;21200;-56
2021/09/23 01:19:11;;;;;;;2.10;1.30;;;;;;;22.58;55.43;100884.98;1779369;79;21026;-56
2021/09/23 01:21:37;;;;;;;2.72;1.40;;;;;;;22.59;55.41;100887.44;1785077;79;21042;-56
2021/09/23 01:24:04;;;;;;;3.45;1.35;;;;;;;22.60;55.37;100884.10;1776764;79;21039;-56
2021/09/23 01:26:30;;;;;;;2.20;1.50;;;;;;;22.60;55.36;100881.33;1785713;80;21053;-56
2021/09/23 01:28:56;;;;;;;2.50;1.52;;;;;;;22.61;55.34;100884.35;1773031;80;21484;-56
2021/09/23 01:31:23;;;;;;;3.67;1.85;;;;;;;22.61;55.34;100880.19;1775424;80;21075;-56
2021/09/23 01:33:51;;;;;;;2.40;1.62;;;;;;;22.62;55.34;100883.19;1780052;80;21125;-56
2021/09/23 01:36:17;;;;;;;4.95;2.08;;;;;;;22.61;55.36;100892.10;1782247;79;21000;-55
2021/09/23 01:38:43;;;;;;;3.85;1.77;;;;;;;22.60;55.37;100892.42;1777042;79;20858;-56
2021/09/23 01:41:11;;;;;;;3.42;2.22;;;;;;;22.61;55.42;100900.99;1779629;80;21459;-55
2021/09/23 01:43:37;;;;;;;2.90;2.12;;;;;;;22.60;55.47;100897.40;1776663;80;21059;-56
2021/09/23 01:46:03;;;;;;;3.05;2.20;;;;;;;22.60;55.49;100900.74;1793382;79;20928;-56
2021/09/23 01:48:29;;;;;;;2.75;2.20;;;;;;;22.59;55.52;100895.77;1784640;79;21877;-56
2021/09/23 01:50:55;;;;;;;5.15;1.98;;;;;;;22.59;55.54;100890.78;1786945;80;21020;-56
2021/09/23 01:53:21;;;;;;;2.95;2.00;;;;;;;22.58;55.55;100899.67;1776297;80;21652;-55
2021/09/23 01:55:47;;;;;;;3.17;1.90;;;;;;;22.57;55.56;100895.86;1785466;80;20917;-56
2021/09/23 01:58:13;;;;;;;4.08;1.90;;;;;;;22.56;55.57;100902.55;1766853;80;21647;-55
2021/09/23 02:00:39;;;;;;;3.12;1.70;;;;;;;22.55;55.57;100904.50;1783561;79;21478;-56
2021/09/23 02:03:05;;;;;;;3.00;1.87;;;;;;;22.54;55.59;100900.09;1784312;80;21550;-57
2021/09/23 02:05:31;;;;;;;2.95;1.85;;;;;;;22.53;55.59;100897.06;1785932;79;21249;-56
2021/09/23 02:07:57;;;;;;;2.47;1.70;;;;;;;22.52;55.61;100899.62;1781263;79;21707;-56
2021/09/23 02:10:24;;;;;;;3.15;1.85;;;;;;;22.51;55.62;100903.52;1778202;80;21069;-56
2021/09/23 02:12:50;;;;;;;3.72;1.90;;;;;;;22.50;55.62;100899.68;1783173;79;21049;-55
2021/09/23 02:15:16;;;;;;;2.90;1.90;;;;;;;22.49;55.65;100904.41;1779995;79;21045;-56
2021/09/23 02:17:44;;;;;;;20.20;5.17;;;;;;;22.47;55.66;100898.39;1782653;79;21104;-55
2021/09/23 02:20:11;;;;;;;15.43;5.87;;;;;;;22.46;55.69;100900.09;1789797;79;21512;-55
2021/09/23 02:22:37;;;;;;;14.47;4.90;;;;;;;22.45;55.79;100897.89;1779730;80;21199;-55
2021/09/23 02:25:05;;;;;;;9.25;4.30;;;;;;;22.47;55.89;100894.23;1785479;79;21014;-55
2021/09/23 02:27:31;;;;;;;10.20;3.52;;;;;;;22.51;56.05;100896.59;1778674;80;21077;-56
2021/09/23 02:29:57;;;;;;;5.83;2.70;;;;;;;22.55;56.24;100893.97;1773020;79;21073;-56
2021/09/23 02:32:23;;;;;;;6.42;3.10;;;;;;;22.59;56.41;100895.77;1782439;79;21030;-56
2021/09/23 02:34:50;;;;;;;5.60;2.40;;;;;;;22.63;56.55;100890.37;1785662;79;21001;-55
2021/09/23 02:37:16;;;;;;;6.08;2.50;;;;;;;22.69;56.58;100894.08;1782958;79;21094;-55
2021/09/23 02:39:42;;;;;;;5.55;2.35;;;;;;;22.73;56.54;100899.77;1781618;79;21474;-56
2021/09/23 02:42:08;;;;;;;8.33;2.72;;;;;;;22.75;56.49;100906.60;1791181;79;21192;-56
2021/09/23 02:44:34;;;;;;;7.70;3.52;;;;;;;22.79;56.42;100904.58;1776303;79;21011;-56
2021/09/23 02:47:00;;;;;;;9.13;3.35;;;;;;;22.79;56.36;100912.30;1781129;79;20982;-55
2021/09/23 02:49:26;;;;;;;9.30;3.62;;;;;;;22.80;56.29;100918.67;1791128;79;21034;-55
2021/09/23 02:51:53;;;;;;;9.38;3.60;;;;;;;22.78;56.21;100916.81;1755032;79;21703;-55
2021/09/23 02:54:20;;;;;;;8.95;3.60;;;;;;;22.77;56.17;100917.38;1785819;79;21161;-56
2021/09/23 02:56:45;;;;;;;7.87;3.67;;;;;;;22.75;56.14;100911.33;1780251;79;21632;-55
2021/09/23 02:59:12;;;;;;;6.87;3.72;;;;;;;22.72;56.11;100908.66;1784908;79;21040;-56
2021/09/23 03:01:38;;;;;;;11.93;3.65;;;;;;;22.71;56.09;100908.98;1786061;80;21555;-56
2021/09/23 03:04:04;;;;;;;7.40;3.62;;;;;;;22.67;56.07;100908.80;1787284;79;20905;-56
2021/09/23 03:06:30;;;;;;;5.75;3.40;;;;;;;22.63;56.04;100909.21;1787231;80;21098;-56
2021/09/23 03:08:56;;;;;;;6.85;2.87;;;;;;;22.59;56.05;100902.69;1780664;79;21059;-55
2021/09/23 03:11:22;;;;;;;7.30;3.20;;;;;;;22.57;56.05;100908.34;1780009;80;20897;-56
2021/09/23 03:13:48;;;;;;;8.15;2.90;;;;;;;22.54;56.04;100905.63;1783175;79;21114;-55
2021/09/23 03:16:14;;;;;;;7.47;3.00;;;;;;;22.52;56.05;100910.70;1783736;79;21029;-56
2021/09/23 03:18:40;;;;;;;6.83;3.20;;;;;;;22.50;56.06;100910.20;1775315;79;21609;-55
2021/09/23 03:21:06;;;;;;;7.40;2.87;;;;;;;22.46;56.06;100903.69;1786375;79;20998;-56
2021/09/23 03:23:32;;;;;;;6.65;2.85;;;;;;;22.44;56.07;100908.77;1785301;79;21595;-53
2021/09/23 03:25:59;;;;;;;6.45;2.92;;;;;;;22.43;56.08;100914.05;1784703;79;21645;-55
2021/09/23 03:28:25;;;;;;;5.87;3.00;;;;;;;22.41;56.11;100911.34;1778162;80;21037;-55
2021/09/23 03:30:51;;;;;;;4.90;2.77;;;;;;;22.37;56.10;100916.73;1773660;80;22099;-56
2021/09/23 03:33:17;;;;;;;5.87;2.50;;;;;;;22.35;56.13;100916.27;1779328;79;21012;-56
2021/09/23 03:35:43;;;;;;;6.80;2.92;;;;;;;22.32;56.12;100919.09;1787310;78;21655;-55
2021/09/23 03:38:09;;;;;;;6.37;2.75;;;;;;;22.30;56.14;100922.78;1786555;79;21093;-55
2021/09/23 03:40:35;;;;;;;5.65;2.65;;;;;;;22.28;56.15;100916.73;1777684;79;21196;-56
2021/09/23 03:43:01;;;;;;;4.53;2.50;;;;;;;22.27;56.17;100924.02;1779131;79;21422;-56
2021/09/23 03:45:27;;;;;;;7.15;2.92;;;;;;;22.26;56.17;100925.14;1788422;80;20918;-55
2021/09/23 03:47:54;;;;;;;4.47;2.33;;;;;;;22.24;56.21;100915.76;1778462;80;21482;-55
2021/09/23 03:50:20;;;;;;;5.70;2.27;;;;;;;22.22;56.23;100916.67;1781139;80;21048;-55
2021/09/23 03:52:47;;;;;;;5.08;2.58;;;;;;;22.22;56.27;100913.08;1778211;79;21003;-55
2021/09/23 03:55:13;;;;;;;5.20;2.27;;;;;;;22.21;56.33;100917.81;1788641;79;22024;-55
2021/09/23 03:57:39;;;;;;;3.85;2.05;;;;;;;22.20;56.37;100926.44;1785511;79;21022;-55
2021/09/23 04:00:07;;;;;;;5.15;2.50;;;;;;;22.19;56.41;100919.28;1776832;79;21185;-55
2021/09/23 04:02:33;;;;;;;5.95;2.22;;;;;;;22.17;56.45;100914.06;1776516;79;21122;-55
2021/09/23 04:04:59;;;;;;;5.28;2.80;;;;;;;22.17;56.48;100918.78;1776338;80;21471;-56
2021/09/23 04:07:25;;;;;;;4.75;2.02;;;;;;;22.15;56.51;100922.47;1783187;79;21193;-56
2021/09/23 04:09:51;;;;;;;5.83;2.42;;;;;;;22.14;56.54;100927.19;1782364;79;20983;-55
2021/09/23 04:12:17;;;;;;;4.80;2.30;;;;;;;22.13;56.57;100925.55;1782080;79;20918;-55
2021/09/23 04:14:43;;;;;;;6.60;2.40;;;;;;;22.13;56.60;100933.05;1784708;80;21011;-53
2021/09/23 04:17:09;;;;;;;4.60;2.00;;;;;;;22.12;56.62;100935.56;1782089;78;20898;-55
2021/09/23 04:19:35;;;;;;;4.35;2.40;;;;;;;22.10;56.63;100935.91;1781669;79;21093;-55
2021/09/23 04:22:02;;;;;;;4.30;2.05;;;;;;;22.09;56.67;100938.42;1781418;79;21038;-56
2021/09/23 04:24:28;;;;;;;3.80;1.80;;;;;;;22.11;56.69;100940.28;1757362;80;21066;-55
2021/09/23 04:26:54;;;;;;;4.92;1.90;;;;;;;22.15;56.79;100946.02;1756339;81;21056;-55
2021/09/23 04:29:20;;;;;;;4.22;1.95;;;;;;;22.16;56.93;100941.52;1756899;80;21068;-55
2021/09/23 04:31:46;;;;;;;3.20;1.80;;;;;;;22.19;57.04;100945.61;1744905;80;21293;-56
2021/09/23 04:34:12;;;;;;;3.92;1.90;;;;;;;22.21;57.08;100946.91;1759113;80;21118;-55
2021/09/23 04:36:39;;;;;;;4.33;2.42;;;;;;;22.26;57.05;100951.47;1753903;80;21028;-54
2021/09/23 04:39:05;;;;;;;4.78;2.27;;;;;;;22.29;56.97;100948.86;1756838;81;20886;-56
2021/09/23 04:41:31;;;;;;;4.42;2.00;;;;;;;22.31;56.88;100959.07;1759538;81;21012;-56
2021/09/23 04:43:57;;;;;;;4.12;1.95;;;;;;;22.32;56.78;100959.86;1756449;81;21566;-55
2021/09/23 04:46:24;;;;;;;5.45;2.12;;;;;;;22.32;56.71;100963.45;1755220;80;20901;-55
2021/09/23 04:48:52;;;;;;;6.00;2.60;;;;;;;22.32;56.64;100968.99;1753910;80;21849;-55
2021/09/23 04:51:19;;;;;;;4.22;2.10;;;;;;;22.31;56.58;100973.50;1746888;81;21080;-56
2021/09/23 04:53:46;;;;;;;4.58;1.95;;;;;;;22.30;56.55;100976.83;1753443;81;21080;-56
2021/09/23 04:56:12;;;;;;;3.00;1.90;;;;;;;22.28;56.54;100974.94;1755834;80;21647;-55
2021/09/23 04:58:38;;;;;;;4.28;2.02;;;;;;;22.27;56.49;100987.76;1756486;81;21550;-55
2021/09/23 05:01:04;;;;;;;3.25;2.33;;;;;;;22.24;56.47;100986.44;1756735;80;21044;-54
2021/09/23 05:03:30;;;;;;;4.35;2.27;;;;;;;22.23;56.49;100990.38;1759721;81;21000;-55
2021/09/23 05:05:56;;;;;;;4.05;1.95;;;;;;;22.22;56.49;101000.38;1760951;81;20949;-54
2021/09/23 05:08:23;;;;;;;3.45;1.95;;;;;;;22.19;56.47;101000.44;1757703;81;21970;-56
2021/09/23 05:10:51;;;;;;;3.98;2.20;;;;;;;22.17;56.50;101006.89;1748449;81;21045;-55
2021/09/23 05:13:18;;;;;;;2.80;1.85;;;;;;;22.16;56.50;101009.98;1758207;81;21033;-55
2021/09/23 05:15:44;;;;;;;5.17;2.40;;;;;;;22.14;56.50;101015.05;1752636;80;21004;-55
2021/09/23 05:18:11;;;;;;;4.17;2.17;;;;;;;22.12;56.52;101020.08;1756470;81;21096;-56
2021/09/23 05:20:37;;;;;;;3.90;2.30;;;;;;;22.11;56.53;101019.82;1759041;81;21978;-56
2021/09/23 05:23:06;;;;;;;5.92;2.12;;;;;;;22.09;56.56;101019.34;1753747;80;20999;-56
2021/09/23 05:25:33;;;;;;;3.12;2.10;;;;;;;22.07;56.57;101025.20;1761482;80;21230;-56
2021/09/23 05:27:59;;;;;;;4.37;2.08;;;;;;;22.06;56.59;101020.00;1803552;78;21470;-56
2021/09/23 05:30:25;;;;;;;3.27;2.10;;;;;;;22.04;56.61;101022.26;1804205;79;20875;-56
2021/09/23 05:32:52;;;;;;;3.67;1.87;;;;;;;22.03;56.62;101020.05;1798512;78;21250;-55
2021/09/23 05:35:19;;;;;;;3.47;2.17;;;;;;;22.02;56.62;101030.09;1795292;79;21018;-56
2021/09/23 05:37:45;;;;;;;3.67;2.12;;;;;;;22.00;56.65;101033.73;1802006;79;21441;-56
2021/09/23 05:40:12;;;;;;;3.75;2.12;;;;;;;21.98;56.64;101034.05;1804511;78;21632;-57
2021/09/23 05:42:39;;;;;;;4.37;2.02;;;;;;;21.98;56.66;101038.20;1790518;79;21429;-56
2021/09/23 05:45:08;;;;;;;5.08;1.95;;;;;;;21.97;56.66;101045.47;1802340;78;21343;-56
2021/09/23 05:47:35;;;;;;;3.52;1.70;;;;;;;21.96;56.68;101038.29;1801996;79;21023;-54
2021/09/23 05:50:02;;;;;;;2.62;2.00;;;;;;;21.93;56.68;101042.53;1794009;78;20951;-56
2021/09/23 05:52:28;;;;;;;4.58;2.00;;;;;;;21.92;56.69;101046.44;1803928;78;21015;-56
2021/09/23 05:54:54;;;;;;;2.87;1.65;;;;;;;21.92;56.71;101058.05;1800210;79;21394;-57
2021/09/23 05:57:23;;;;;;;2.80;1.60;;;;;;;21.90;56.73;101049.25;1803389;79;21301;-56
2021/09/23 05:59:50;;;;;;;4.53;1.80;;;;;;;21.90;56.75;101054.80;1798768;78;21003;-56
2021/09/23 06:02:16;;;;;;;2.70;1.85;;;;;;;21.89;56.75;101056.75;1797802;79;21085;-57
2021/09/23 06:04:42;;;;;;;3.02;1.90;;;;;;;21.87;56.74;101058.44;1804139;79;21470;-56
2021/09/23 06:07:08;;;;;;;2.90;1.70;;;;;;;21.88;56.77;101060.08;1803556;78;21031;-56
2021/09/23 06:09:34;;;;;;;2.83;1.60;;;;;;;21.86;56.76;101055.41;1801870;79;21232;-56
2021/09/23 06:12:01;;;;;;;3.40;1.67;;;;;;;21.86;56.78;101056.80;1802015;77;21592;-56
2021/09/23 06:14:28;;;;;;;2.92;1.77;;;;;;;21.85;56.78;101060.70;1800431;78;21487;-56
2021/09/23 06:16:55;;;;;;;3.55;2.05;;;;;;;21.85;56.79;101064.06;1803482;78;21015;-55
2021/09/23 06:19:21;;;;;;;3.17;2.00;;;;;;;21.83;56.80;101058.83;1802580;78;21003;-56
2021/09/23 06:21:47;;;;;;;2.20;1.40;;;;;;;21.83;56.81;101067.14;1803075;79;21239;-55
2021/09/23 06:24:13;;;;;;;3.33;1.77;;;;;;;21.84;56.82;101068.78;1801906;78;20967;-55
2021/09/23 06:26:39;;;;;;;3.65;1.70;;;;;;;21.84;56.83;101079.04;1792419;79;21023;-56
2021/09/23 06:29:05;;;;;;;2.22;1.70;;;;;;;21.83;56.82;101076.84;1788479;78;20870;-56
2021/09/23 06:31:35;;;;;;;2.60;1.67;;;;;;;21.83;56.82;101087.09;1795304;79;21139;-56
2021/09/23 06:34:02;;;;;;;2.98;2.00;;;;;;;21.83;56.82;101087.09;1791195;78;21494;-56
2021/09/23 06:36:28;;;;;;;3.52;1.62;;;;;;;21.82;56.83;101089.05;1786229;79;21027;-54
2021/09/23 06:38:54;;;;;;;3.05;1.70;;;;;;;21.82;56.84;101086.84;1789308;78;21095;-56
2021/09/23 06:41:20;;;;;;;3.30;1.87;;;;;;;21.81;56.83;101087.41;1789323;79;21023;-59
2021/09/23 06:43:48;;;;;;;2.92;1.80;;;;;;;21.82;56.84;101091.81;1792017;78;20921;-56
2021/09/23 06:46:16;;;;;;;3.35;1.90;;;;;;;21.81;56.84;101097.09;1792694;79;23562;-56
2021/09/23 06:48:42;;;;;;;3.10;1.65;;;;;;;21.81;56.84;101098.48;1808827;78;21107;-55
2021/09/23 06:51:08;;;;;;;2.87;1.50;;;;;;;21.81;56.84;101097.09;1793747;79;21038;-56
2021/09/23 06:53:34;;;;;;;3.67;1.87;;;;;;;21.81;56.85;101098.48;1801541;78;21448;-56
2021/09/23 06:56:00;;;;;;;2.72;1.80;;;;;;;21.81;56.86;101108.17;1798547;77;20937;-56
2021/09/23 06:58:26;;;;;;;3.60;2.02;;;;;;;21.81;56.86;101106.00;1792770;79;21073;-55
2021/09/23 07:00:52;;;;;;;2.90;1.75;;;;;;;21.81;56.85;101104.62;1797768;77;21068;-55
2021/09/23 07:03:18;;;;;;;3.15;1.70;;;;;;;21.81;56.84;101101.84;1795576;78;20960;-57
2021/09/23 07:05:45;;;;;;;4.60;2.00;;;;;;;21.81;56.85;101106.00;1796836;78;21021;-56
2021/09/23 07:08:14;;;;;;;2.47;1.70;;;;;;;21.80;56.84;101106.56;1776588;79;22186;-56
2021/09/23 07:10:39;;;;;;;3.30;1.55;;;;;;;21.80;56.84;101110.72;1779586;79;21477;-54
2021/09/23 07:13:05;;;;;;;2.67;1.70;;;;;;;21.80;56.84;101105.75;1787627;79;21038;-56
2021/09/23 07:15:31;;;;;;;3.40;1.82;;;;;;;21.80;56.84;101105.75;1782499;80;21017;-56
2021/09/23 07:17:58;;;;;;;2.47;1.60;;;;;;;21.80;56.83;101118.20;1746631;80;46961;-56
2021/09/23 07:20:24;;;;;;;2.10;1.50;;;;;;;21.80;56.83;101117.64;1802944;79;21370;-56
2021/09/23 07:22:51;;;;;;;2.15;1.55;;;;;;;21.80;56.80;101114.05;1802940;78;21461;-57
2021/09/23 07:25:19;;;;;;;4.12;1.67;;;;;;;21.79;56.80;101116.00;1777789;80;21044;-56
2021/09/23 07:27:45;;;;;;;1.92;1.40;;;;;;;21.79;56.80;101104.92;1777905;80;21180;-56
2021/09/23 07:30:13;;;;;;;3.17;1.42;;;;;;;21.80;56.78;101109.90;1778548;79;21625;-56
2021/09/23 07:32:39;;;;;;;2.37;1.77;;;;;;;21.80;56.78;101105.75;1787249;79;20940;-56
2021/09/23 07:35:06;;;;;;;1.90;1.35;;;;;;;21.80;56.76;101109.34;1746467;80;20932;-56
2021/09/23 07:37:33;;;;;;;3.00;1.60;;;;;;;21.80;56.75;101106.56;1796581;78;21013;-56
2021/09/23 07:39:59;;;;;;;1.98;1.20;;;;;;;21.80;56.73;101109.34;1797014;78;20969;-56
2021/09/23 07:42:25;;;;;;;2.77;1.50;;;;;;;21.80;56.73;101105.75;1787227;78;21276;-56
2021/09/23 07:44:51;;;;;;;1.80;1.50;;;;;;;21.80;56.68;101095.48;1802725;79;20869;-54
2021/09/23 07:47:17;;;;;;;2.95;1.70;;;;;;;21.82;56.69;101102.07;1793558;78;21212;-55
2021/09/23 07:49:43;;;;;;;2.10;1.50;;;;;;;21.82;56.68;101100.69;1795289;79;21616;-55
2021/09/23 07:52:09;;;;;;;2.05;1.55;;;;;;;21.83;56.64;101102.33;1782697;79;21154;-56
2021/09/23 07:54:35;;;;;;;2.60;1.42;;;;;;;21.83;56.62;101102.33;1787145;78;21071;-56
2021/09/23 07:57:02;;;;;;;4.72;1.90;;;;;;;21.83;56.61;101101.77;1790535;78;21411;-58
2021/09/23 07:59:28;;;;;;;2.83;1.67;;;;;;;21.83;56.59;101096.23;1790731;78;21100;-56
2021/09/23 08:01:55;;;;;;;1.65;1.20;;;;;;;21.83;56.58;101101.77;1793152;79;21328;-56
2021/09/23 08:04:21;;;;;;;2.02;1.52;;;;;;;21.83;56.55;101100.38;1789065;78;21007;-56
2021/09/23 08:06:47;;;;;;;3.00;1.70;;;;;;;21.83;56.52;101096.79;1787519;79;20964;-56
2021/09/23 08:09:13;;;;;;;1.77;1.30;;;;;;;21.84;56.50;101102.02;1791474;79;20885;-56
2021/09/23 08:11:40;;;;;;;3.10;1.92;;;;;;;21.84;56.48;101100.64;1799292;78;21294;-56
2021/09/23 08:14:07;;;;;;;2.20;1.55;;;;;;;21.84;56.47;101103.41;1790697;78;20997;-56
2021/09/23 08:16:33;;;;;;;2.25;1.17;;;;;;;21.85;56.44;101102.25;1790164;78;21087;-56
2021/09/23 08:18:59;;;;;;;2.77;1.60;;;;;;;21.85;56.41;101098.69;1795275;78;20993;-56
2021/09/23 08:21:27;;;;;;;2.05;1.40;;;;;;;21.86;56.39;101093.38;1780057;78;20932;-57
2021/09/23 08:23:53;;;;;;;2.55;1.40;;;;;;;21.86;56.37;101095.58;1795388;78;21523;-56
2021/09/23 08:26:23;;;;;;;1.80;1.30;;;;;;;21.87;56.33;101095.84;1809112;78;21036;-56
2021/09/23 08:28:51;;;;;;;1.82;1.20;;;;;;;21.88;56.31;101103.58;1804643;78;21024;-56
2021/09/23 08:31:18;;;;;;;2.35;1.45;;;;;;;21.87;56.29;101101.37;1799761;78;21056;-57
2021/09/23 08:33:45;;;;;;;3.12;1.50;;;;;;;21.87;56.28;101099.98;1790721;78;21070;-56
2021/09/23 08:36:11;;;;;;;2.22;1.60;;;;;;;21.88;56.24;101098.04;1795360;79;21416;-56
2021/09/23 08:38:37;;;;;;;2.72;1.35;;;;;;;21.87;56.23;101104.14;1773097;79;21001;-56
2021/09/23 08:41:04;;;;;;;2.00;1.37;;;;;;;21.87;56.22;101097.22;1787708;80;21389;-56
2021/09/23 08:43:30;;;;;;;2.33;1.22;;;;;;;21.89;56.18;101102.45;1783980;79;21011;-56
2021/09/23 08:45:57;;;;;;;2.40;1.30;;;;;;;21.88;56.15;101098.86;1789763;79;21079;-56
2021/09/23 08:48:23;;;;;;;2.02;1.32;;;;;;;21.87;56.14;101097.22;1791336;79;21988;-56
2021/09/23 08:50:49;;;;;;;2.33;1.30;;;;;;;21.87;56.12;101097.78;1783187;79;21106;-54
2021/09/23 08:53:15;;;;;;;1.80;1.32;;;;;;;21.86;56.10;101098.34;1784110;79;21438;-56
2021/09/23 08:55:42;;;;;;;2.02;1.35;;;;;;;21.87;56.08;101097.78;1787347;79;21005;-57
2021/09/23 08:58:08;;;;;;;1.95;1.40;;;;;;;21.87;56.05;101101.37;1781495;79;21409;-58
2021/09/23 09:00:37;;;;;;;1.60;1.25;;;;;;;21.86;56.05;101096.97;1787182;79;21229;-56
2021/09/23 09:03:08;;;;;;;1.92;1.40;;;;;;;21.87;56.02;101096.40;1786979;79;20990;-56
2021/09/23 09:05:36;;;;;;;1.92;1.42;;;;;;;21.86;56.02;101096.97;1782378;79;21038;-55
2021/09/23 09:08:05;;;;;;;2.00;1.30;;;;;;;21.86;55.98;101102.50;1785492;79;21004;-55
2021/09/23 09:10:32;;;;;;;2.00;1.15;;;;;;;21.86;55.96;101101.68;1789838;79;20996;-57
2021/09/23 09:13:03;;;;;;;2.17;1.30;;;;;;;21.86;55.96;101109.43;1789938;79;21218;-55
2021/09/23 09:15:37;;;;;;;;;;;;;;;21.85;55.92;101105.61;1785863;79;20963;-55
2021/09/23 09:18:21;;;;;;;1.37;1.07;;;;;;;21.84;55.91;101107.56;1791246;79;20162;-55
2021/09/23 09:21:11;;;;;;;9.13;1.30;;;;;;;21.83;55.94;101106.48;1753573;79;22332;-56
2021/09/23 09:23:59;;;;;;;2.05;1.30;;;;;;;21.82;55.91;101107.05;1783496;79;21069;-56
2021/09/23 09:26:36;;;;;;;2.25;1.45;;;;;;;21.83;55.87;101108.69;1769775;79;23170;-56
2021/09/23 09:29:05;;;;;;;2.12;1.47;;;;;;;21.84;55.86;101113.66;1761813;80;21068;-55
2021/09/23 09:31:32;;;;;;;2.05;1.20;;;;;;;21.83;55.82;101108.69;1762611;79;21138;-56
2021/09/23 09:34:00;;;;;;;2.45;1.60;;;;;;;21.84;55.80;101113.66;1765991;79;21053;-54
2021/09/23 09:36:37;;;;;;;2.50;1.27;;;;;;;21.84;55.79;101115.88;1766804;79;21027;-54
2021/09/23 09:39:08;;;;;;;1.82;1.30;;;;;;;21.84;55.79;101117.25;1765407;81;21086;-56
2021/09/23 09:41:39;;;;;;;1.98;1.22;;;;;;;21.84;55.76;101108.95;1805689;78;21176;-56
2021/09/23 09:44:08;;;;;;;2.22;1.40;;;;;;;21.84;55.73;101107.56;1807600;79;21477;-57
2021/09/23 09:46:38;;;;;;;2.50;1.42;;;;;;;21.86;55.71;101105.84;1741497;81;21044;-55
2021/09/23 09:49:04;;;;;;;1.95;1.17;;;;;;;21.87;55.68;101097.78;1781319;79;20993;-56
2021/09/23 09:51:39;;;;;;;2.27;1.40;;;;;;;21.88;55.63;101098.04;1765588;80;21667;-56
2021/09/23 09:54:06;;;;;;;1.70;1.20;;;;;;;21.88;55.63;101091.11;1756297;80;21079;-56
2021/09/23 09:56:33;;;;;;;2.22;1.50;;;;;;;21.88;55.59;101093.32;1765347;80;21066;-57
2021/09/23 09:59:19;;;;;;;1.90;1.60;;;;;;;21.89;55.55;101092.75;1770752;80;21364;-55
2021/09/23 10:01:54;;;;;;;2.37;1.27;;;;;;;21.89;55.54;101092.75;1768317;81;21546;-55
2021/09/23 10:04:21;;;;;;;1.70;1.37;;;;;;;21.91;55.50;101089.65;1766570;80;23151;-53
2021/09/23 10:06:48;;;;;;;2.30;1.30;;;;;;;21.91;55.46;101083.55;1769621;80;21481;-54
2021/09/23 10:09:16;;;;;;;1.80;1.12;;;;;;;21.91;55.45;101079.95;1799999;79;21121;-54
2021/09/23 10:11:47;;;;;;;2.08;1.37;;;;;;;21.92;55.41;101072.75;1796604;78;21009;-54
2021/09/23 10:14:14;;;;;;;1.50;1.27;;;;;;;21.92;55.37;101067.74;1797721;78;21381;-53
2021/09/23 10:16:40;;;;;;;1.30;1.10;;;;;;;21.93;55.36;101074.39;1801624;79;21275;-55
2021/09/23 10:19:07;;;;;;;1.42;1.15;;;;;;;21.94;55.33;101072.44;1795503;79;21420;-56
2021/09/23 10:21:34;;;;;;;2.25;1.40;;;;;;;21.94;55.31;101068.28;1795884;78;21078;-55
2021/09/23 10:24:00;;;;;;;2.67;1.90;;;;;;;21.94;55.27;101069.08;1802309;78;21030;-56
2021/09/23 10:26:29;;;;;;;3.25;1.30;;;;;;;21.95;55.22;101066.56;1781661;78;20920;-56
2021/09/23 10:28:57;;;;;;;2.08;1.17;;;;;;;21.95;55.22;101070.72;1804188;78;21844;-54
2021/09/23 10:31:31;;;;;;;1.50;1.02;;;;;;;21.98;55.19;101078.38;1799465;78;20935;-56
2021/09/23 10:33:53;;;;;;;2.27;1.37;;;;;;;21.99;55.17;101073.66;1813586;78;20978;-54
2021/09/23 10:36:20;;;;;;;2.45;1.10;;;;;;;22.00;55.17;101075.30;1795033;78;21336;-55
2021/09/23 10:38:47;;;;;;;2.40;1.22;;;;;;;22.00;55.13;101066.42;1809986;77;21053;-56
2021/09/23 10:41:13;;;;;;;2.00;1.12;;;;;;;22.02;55.13;101066.93;1726037;80;21138;-55
2021/09/23 10:43:40;;;;;;;1.55;1.10;;;;;;;22.03;55.11;101066.34;1806007;78;21040;-55
2021/09/23 10:46:06;;;;;;;2.40;1.55;;;;;;;22.03;55.08;101070.48;1807412;78;20998;-55
2021/09/23 10:48:34;;;;;;;1.98;1.40;;;;;;;22.04;55.06;101076.28;1776414;80;20958;-55
2021/09/23 10:51:00;;;;;;;1.40;1.05;;;;;;;22.04;55.04;101077.67;1786885;78;20983;-54
2021/09/23 10:53:27;;;;;;;1.65;1.20;;;;;;;22.03;55.06;101074.08;1805756;78;21157;-54
2021/09/23 10:55:53;;;;;;;2.15;1.47;;;;;;;22.03;55.04;101074.64;1806500;78;21438;-55
2021/09/23 10:58:21;;;;;;;1.52;1.00;;;;;;;22.03;55.02;101070.48;1773821;78;20961;-54
2021/09/23 11:00:47;;;;;;;1.80;1.25;;;;;;;22.04;55.01;101059.09;1761565;78;21103;-55
2021/09/23 11:03:14;;;;;;;1.90;1.12;;;;;;;22.04;55.01;101052.73;1788071;79;20934;-56
2021/09/23 11:05:42;;;;;;;1.90;1.37;;;;;;;22.05;54.98;101054.37;1773118;78;22143;-55
2021/09/23 11:08:14;;;;;;;1.60;1.27;;;;;;;22.06;54.98;101061.00;1807125;78;21608;-55
2021/09/23 11:10:41;;;;;;;1.80;1.30;;;;;;;22.08;54.95;101050.95;1795793;78;21070;-53
2021/09/23 11:13:09;;;;;;;1.32;0.98;;;;;;;22.08;54.93;101048.19;1809515;78;21003;-53
2021/09/23 11:15:35;;;;;;;2.05;1.40;;;;;;;22.10;54.92;101045.92;1794024;78;21003;-54
2021/09/23 11:18:01;;;;;;;2.12;1.20;;;;;;;22.12;54.93;101044.45;1777183;78;21566;-54
2021/09/23 11:20:30;;;;;;;1.45;1.17;;;;;;;22.12;54.90;101034.75;1761516;78;21059;-55
2021/09/23 11:23:00;;;;;;;2.02;1.40;;;;;;;22.15;54.88;101036.08;1804376;78;21024;-54
2021/09/23 11:25:31;;;;;;;2.08;1.40;;;;;;;22.15;54.87;101034.69;1758071;80;21154;-55